Time;durP1;ratioP1;P1;durP2;ratioP2;P2;SDS_P1;SDS_P2;PMS_P1;PMS_P2;Temp;Humidity;BMP_temperature;BMP_pressure;BME280_temperature;BME280_humidity;BME280_pressure;Samples;Min_cycle;Max_cycle;Signal;HPM_P1;HPM_P2
2023/09/03 00:01:15;;;;;;;1.10;0.82;;;;;;;21.15;100.00;100904.00;4984250;28;20061;-82
2023/09/03 00:03:40;;;;;;;1.40;1.30;;;;;;;21.34;100.00;100960.25;4986115;28;20407;-81
2023/09/03 00:06:06;;;;;;;2.00;1.10;;;;;;;21.02;100.00;100895.53;4986600;28;20042;-81
2023/09/03 00:08:31;;;;;;;1.17;1.08;;;;;;;21.12;100.00;100893.41;4984017;28;20530;-80
2023/09/03 00:10:57;;;;;;;1.90;1.58;;;;;;;21.40;100.00;100984.06;4988249;28;20398;-80
2023/09/03 00:13:22;;;;;;;2.08;1.52;;;;;;;21.53;100.00;100980.03;4987400;28;20034;-80
2023/09/03 00:15:48;;;;;;;2.97;1.45;;;;;;;21.42;100.00;100980.44;4980860;28;20046;-76
2023/09/03 00:18:17;;;;;;;1.35;1.17;;;;;;;21.33;100.00;100990.53;4987648;28;20046;-82
2023/09/03 00:21:00;;;;;;;1.25;0.93;;;;;;;21.27;100.00;100976.47;4981397;28;20084;-78
2023/09/03 00:23:27;;;;;;;0.30;0.30;;;;;;;20.65;100.00;100984.84;4983353;28;20399;-79
2023/09/03 00:25:53;;;;;;;0.95;0.80;;;;;;;19.93;100.00;100891.16;4983919;28;20125;-80
2023/09/03 00:28:19;;;;;;;0.88;0.88;;;;;;;20.11;100.00;100887.91;4986848;28;20042;-78
2023/09/03 00:30:44;;;;;;;2.70;1.58;;;;;;;20.34;100.00;100963.56;4987073;28;20050;-78
2023/09/03 00:33:10;;;;;;;0.82;0.82;;;;;;;20.00;100.00;100863.41;4973638;28;20043;-78
2023/09/03 00:35:35;;;;;;;1.00;0.80;;;;;;;20.22;100.00;100863.56;4964537;28;20050;-77
2023/09/03 00:38:01;;;;;;;0.85;0.85;;;;;;;20.26;100.00;100864.34;4965220;28;20027;-78
2023/09/03 00:40:26;;;;;;;3.45;3.15;;;;;;;20.51;100.00;100965.69;4967905;28;20063;-77
2023/09/03 00:42:52;;;;;;;0.43;0.43;;;;;;;20.54;100.00;100961.16;4959949;28;20055;-78
2023/09/03 00:45:17;;;;;;;1.15;1.05;;;;;;;20.37;100.00;100955.47;4968059;28;20058;-76
2023/09/03 00:47:45;;;;;;;1.25;1.15;;;;;;;20.26;100.00;100941.63;4963316;28;20039;-79
2023/09/03 00:50:11;;;;;;;1.08;1.00;;;;;;;19.65;100.00;100857.34;4986759;28;20463;-78
2023/09/03 00:52:37;;;;;;;2.03;1.58;;;;;;;20.34;100.00;100953.78;4984061;28;20194;-77
2023/09/03 00:55:02;;;;;;;3.03;1.27;;;;;;;20.36;100.00;100933.28;4987469;28;20047;-76
2023/09/03 00:57:28;;;;;;;0.40;0.40;;;;;;;20.08;100.00;100949.28;4979713;28;20053;-79
2023/09/03 00:59:56;;;;;;;1.50;1.33;;;;;;;20.11;100.00;100953.63;4987077;28;20070;-79
2023/09/03 01:02:22;;;;;;;4.18;1.60;;;;;;;20.11;100.00;100898.56;4980181;28;20042;-77
2023/09/03 01:04:48;;;;;;;2.97;1.85;;;;;;;20.13;100.00;100880.72;4984952;28;20038;-79
2023/09/03 01:07:15;;;;;;;1.95;1.65;;;;;;;19.91;100.00;100851.22;4987274;28;20048;-78
2023/09/03 01:09:41;;;;;;;1.52;1.42;;;;;;;20.38;100.00;100939.44;4986879;28;20081;-77
2023/09/03 01:12:19;;;;;;;1.33;0.68;;;;;;;20.35;100.00;100914.69;4984937;28;20077;-81
2023/09/03 01:15:10;;;;;;;0.30;0.30;;;;;;;20.54;100.00;100953.16;4987231;28;20180;-81
2023/09/03 01:17:45;;;;;;;2.13;1.95;;;;;;;20.45;100.00;100948.97;4976214;28;20133;-79
2023/09/03 01:20:18;;;;;;;2.00;1.83;;;;;;;20.52;100.00;100955.00;4986025;28;20027;-80
2023/09/03 01:22:55;;;;;;;1.80;1.70;;;;;;;20.52;100.00;100952.31;4983881;28;20065;-81
2023/09/03 01:25:39;;;;;;;1.65;1.38;;;;;;;20.49;100.00;100963.09;4981735;28;20056;-81
2023/09/03 01:28:33;;;;;;;2.05;1.55;;;;;;;20.47;100.00;100959.59;4985229;28;20423;-79
2023/09/03 01:31:03;;;;;;;0.68;0.68;;;;;;;20.43;100.00;100957.94;4985183;28;20413;-79
2023/09/03 01:33:31;;;;;;;2.10;1.90;;;;;;;19.49;100.00;100832.97;4972059;28;20088;-78
2023/09/03 01:35:58;;;;;;;3.60;2.75;;;;;;;19.46;100.00;100878.31;4972690;28;20050;-77
2023/09/03 01:38:25;;;;;;;2.67;1.05;;;;;;;19.80;100.00;100957.22;4983254;28;20031;-79
2023/09/03 01:40:51;;;;;;;5.78;3.47;;;;;;;19.68;100.00;100944.25;4987225;28;20026;-81
2023/09/03 01:43:17;;;;;;;1.30;1.20;;;;;;;19.26;100.00;100851.41;4983718;28;20051;-79
2023/09/03 01:46:00;;;;;;;2.08;1.88;;;;;;;19.87;100.00;100944.59;4983072;28;20101;-81
2023/09/03 01:48:53;;;;;;;3.25;2.08;;;;;;;19.70;100.00;100964.59;4983120;28;20090;-81
2023/09/03 01:51:25;;;;;;;2.47;1.77;;;;;;;19.91;100.00;100963.09;4982410;28;20491;-78
2023/09/03 01:54:18;;;;;;;0.85;0.65;;;;;;;19.98;100.00;100958.47;4980883;28;20039;-79
2023/09/03 01:56:54;;;;;;;3.03;2.75;;;;;;;19.37;100.00;100871.47;4962397;28;20055;-80
2023/09/03 01:59:29;;;;;;;1.67;1.27;;;;;;;19.52;100.00;100920.72;4980232;28;20494;-80
2023/09/03 02:01:56;;;;;;;0.47;0.40;;;;;;;20.00;100.00;100944.19;4983406;28;20038;-79
2023/09/03 02:04:22;;;;;;;2.05;1.88;;;;;;;20.00;100.00;100945.97;4984876;28;20583;-76
2023/09/03 02:06:47;;;;;;;2.22;2.03;;;;;;;19.43;100.00;100845.59;4980885;28;20061;-79
2023/09/03 02:09:13;;;;;;;1.50;1.40;;;;;;;19.28;100.00;100830.94;4983706;28;20046;-80
2023/09/03 02:11:39;;;;;;;1.38;1.23;;;;;;;19.24;100.00;100832.81;4981792;28;20035;-80
2023/09/03 02:14:05;;;;;;;1.95;1.83;;;;;;;19.31;100.00;100879.63;4983750;28;20714;-80
2023/09/03 02:16:30;;;;;;;1.35;1.25;;;;;;;19.54;100.00;100872.75;4980251;28;20097;-81
2023/09/03 02:18:55;;;;;;;1.60;1.48;;;;;;;19.50;100.00;100856.03;4985618;28;20038;-79
2023/09/03 02:21:21;;;;;;;4.22;2.00;;;;;;;19.80;100.00;100910.16;4985973;28;20043;-79
2023/09/03 02:23:46;;;;;;;5.25;3.22;;;;;;;19.59;100.00;100887.66;4984274;28;20069;-79
2023/09/03 02:26:12;;;;;;;1.67;1.58;;;;;;;19.92;100.00;100932.00;4980401;28;20045;-78
2023/09/03 02:28:37;;;;;;;2.22;2.03;;;;;;;19.19;100.00;100824.97;4987008;28;20037;-78
2023/09/03 02:31:03;;;;;;;1.10;1.00;;;;;;;19.92;100.00;100924.88;4981132;28;20038;-78
2023/09/03 02:33:29;;;;;;;1.08;0.93;;;;;;;19.46;100.00;100840.19;4981570;28;20038;-80
2023/09/03 02:35:54;;;;;;;3.35;2.60;;;;;;;19.95;100.00;100926.63;4981645;28;20057;-79
2023/09/03 02:38:20;;;;;;;1.08;1.00;;;;;;;19.93;100.00;100931.09;4988096;28;20038;-79
2023/09/03 02:40:46;;;;;;;1.30;0.60;;;;;;;19.77;100.00;100896.94;4989869;28;20022;-78
2023/09/03 02:43:12;;;;;;;2.85;2.33;;;;;;;19.33;100.00;100831.69;4985233;28;20504;-80
2023/09/03 02:45:38;;;;;;;1.75;0.85;;;;;;;19.86;100.00;100927.75;4989732;28;20136;-79
2023/09/03 02:48:04;;;;;;;0.95;0.75;;;;;;;19.71;100.00;100896.25;4989381;28;20082;-78
2023/09/03 02:50:29;;;;;;;1.35;1.17;;;;;;;19.26;100.00;100819.47;4989261;28;20572;-77
2023/09/03 02:52:55;;;;;;;2.42;1.88;;;;;;;19.26;100.00;100822.13;4990135;28;20502;-77
2023/09/03 02:55:20;;;;;;;2.42;2.00;;;;;;;19.36;100.00;100824.50;4987618;28;20049;-77
2023/09/03 02:57:46;;;;;;;2.95;2.25;;;;;;;19.30;100.00;100827.31;4989594;28;20054;-77
2023/09/03 03:00:11;;;;;;;1.60;1.42;;;;;;;19.95;100.00;100923.94;4989417;28;20042;-77
2023/09/03 03:02:37;;;;;;;0.77;0.77;;;;;;;19.95;100.00;100927.47;4987334;28;20047;-78
2023/09/03 03:05:02;;;;;;;0.93;0.85;;;;;;;19.80;100.00;100919.94;4984537;28;20038;-79
2023/09/03 03:07:28;;;;;;;0.60;0.60;;;;;;;19.95;100.00;100929.28;4981077;28;20121;-79
2023/09/03 03:09:54;;;;;;;1.05;0.73;;;;;;;19.72;100.00;100903.34;4988051;28;20494;-78
2023/09/03 03:12:19;;;;;;;1.23;1.13;;;;;;;19.65;100.00;100896.41;4984643;28;20049;-77
2023/09/03 03:14:45;;;;;;;1.15;0.68;;;;;;;19.36;100.00;100842.22;4989132;28;20058;-78
2023/09/03 03:17:11;;;;;;;25.85;2.67;;;;;;;19.22;100.00;100839.97;4988828;28;20049;-79
2023/09/03 03:19:36;;;;;;;0.63;0.63;;;;;;;19.22;100.00;100852.41;4983566;28;20035;-79
2023/09/03 03:22:02;;;;;;;2.35;1.98;;;;;;;19.14;100.00;100847.31;4984700;28;20437;-76
2023/09/03 03:24:27;;;;;;;1.63;1.15;;;;;;;19.61;100.00;100940.88;4985836;28;20061;-79
2023/09/03 03:26:53;;;;;;;2.22;1.98;;;;;;;18.94;100.00;100826.56;4982817;28;20054;-80
2023/09/03 03:29:18;;;;;;;1.60;1.50;;;;;;;19.64;100.00;100939.91;4988913;28;20160;-78
2023/09/03 03:31:44;;;;;;;1.30;1.20;;;;;;;19.08;100.00;100851.03;4980284;28;20101;-79
2023/09/03 03:34:09;;;;;;;0.82;0.77;;;;;;;18.98;100.00;100796.31;4987094;28;20050;-77
2023/09/03 03:36:35;;;;;;;2.33;1.85;;;;;;;19.23;100.00;100831.09;4987557;28;20086;-77
2023/09/03 03:39:00;;;;;;;2.13;1.50;;;;;;;19.22;100.00;100849.75;4988219;28;20042;-76
2023/09/03 03:41:26;;;;;;;2.28;1.30;;;;;;;19.65;100.00;100920.38;4978979;28;20165;-75
2023/09/03 03:43:52;;;;;;;1.17;1.08;;;;;;;19.35;100.00;100953.13;4988120;28;20033;-78
2023/09/03 03:46:21;;;;;;;1.13;1.02;;;;;;;18.88;100.00;100822.31;4981035;28;20042;-77
2023/09/03 03:48:49;;;;;;;1.15;0.98;;;;;;;18.98;100.00;100861.03;4987933;28;20049;-79
2023/09/03 03:51:15;;;;;;;1.70;1.30;;;;;;;19.59;100.00;100942.72;4982433;28;20038;-78
2023/09/03 03:53:41;;;;;;;3.35;3.03;;;;;;;19.56;100.00;100949.00;4983233;28;20047;-78
2023/09/03 03:56:08;;;;;;;1.38;1.10;;;;;;;19.03;100.00;100841.41;4986777;28;20030;-78
2023/09/03 03:58:36;;;;;;;1.27;1.17;;;;;;;18.67;100.00;100839.69;4987029;28;20054;-79
2023/09/03 04:01:20;;;;;;;3.40;3.10;;;;;;;19.26;100.00;100944.53;4979894;28;20046;-78
2023/09/03 04:03:47;;;;;;;0.60;0.60;;;;;;;18.62;100.00;100848.72;4983432;28;20078;-79
2023/09/03 04:06:13;;;;;;;1.50;1.40;;;;;;;19.21;100.00;100931.34;4987174;28;20054;-78
2023/09/03 04:08:40;;;;;;;0.88;0.85;;;;;;;18.79;100.00;100905.00;4987362;28;20053;-76
2023/09/03 04:11:08;;;;;;;1.70;1.13;;;;;;;18.78;100.00;100961.75;4988205;28;20046;-79
2023/09/03 04:13:35;;;;;;;2.83;1.85;;;;;;;18.17;100.00;100855.16;4986963;28;20542;-77
2023/09/03 04:16:05;;;;;;;1.48;0.73;;;;;;;18.31;100.00;100842.41;4987630;28;20050;-77
2023/09/03 04:18:30;;;;;;;1.65;1.05;;;;;;;18.41;100.00;100844.81;4985619;28;20057;-76
2023/09/03 04:20:57;;;;;;;1.13;1.05;;;;;;;19.20;100.00;100937.59;4987345;28;20042;-77
2023/09/03 04:23:24;;;;;;;1.83;1.23;;;;;;;18.89;100.00;100857.75;4983873;28;20072;-78
2023/09/03 04:25:51;;;;;;;0.85;0.80;;;;;;;19.32;100.00;100936.41;4986450;28;20096;-78
2023/09/03 04:28:17;;;;;;;2.10;1.92;;;;;;;18.89;100.00;100845.31;4984692;28;20046;-79
2023/09/03 04:30:43;;;;;;;1.42;1.27;;;;;;;18.88;100.00;100858.69;4985692;28;20522;-79
2023/09/03 04:33:08;;;;;;;1.17;1.15;;;;;;;18.67;100.00;100870.72;4977084;28;20049;-80
2023/09/03 04:35:35;;;;;;;4.28;2.88;;;;;;;18.46;100.00;100864.19;4987191;28;20517;-81
2023/09/03 04:38:00;;;;;;;0.40;0.40;;;;;;;18.49;100.00;100838.38;4988059;28;20026;-80
2023/09/03 04:40:26;;;;;;;0.90;0.90;;;;;;;19.30;100.00;100955.06;4986634;28;20051;-78
2023/09/03 04:42:52;;;;;;;0.47;0.47;;;;;;;18.87;100.00;100841.88;4974258;28;20047;-79
2023/09/03 04:45:17;;;;;;;3.90;2.22;;;;;;;19.17;100.00;100948.31;4987462;28;20077;-79
2023/09/03 04:47:44;;;;;;;0.57;0.57;;;;;;;18.67;100.00;100830.84;4979192;28;20534;-76
2023/09/03 04:50:09;;;;;;;1.55;1.42;;;;;;;19.19;100.00;100951.81;4981732;28;20064;-78
2023/09/03 04:52:42;;;;;;;1.73;1.15;;;;;;;19.26;100.00;100920.59;4986283;28;20076;-78
2023/09/03 04:55:08;;;;;;;0.75;0.65;;;;;;;18.86;100.00;100840.09;4983549;28;20066;-79
2023/09/03 04:57:33;;;;;;;1.38;1.27;;;;;;;19.29;100.00;100913.41;4999721;28;20061;-79
2023/09/03 04:59:59;;;;;;;10.23;1.75;;;;;;;19.64;100.00;100905.31;4988478;28;20475;-79
2023/09/03 05:02:24;;;;;;;1.13;1.02;;;;;;;19.03;100.00;100809.50;4980201;28;20127;-78
2023/09/03 05:04:50;;;;;;;1.40;1.30;;;;;;;19.74;100.00;100936.13;5009352;28;20038;-77
2023/09/03 05:07:15;;;;;;;1.33;0.95;;;;;;;19.73;100.00;100929.03;4985959;28;20403;-79
2023/09/03 05:09:41;;;;;;;0.65;0.65;;;;;;;19.98;100.00;100937.16;4977173;28;20047;-78
2023/09/03 05:12:07;;;;;;;0.75;0.75;;;;;;;20.63;100.00;100883.56;4986112;28;20070;-79
2023/09/03 05:14:32;;;;;;;0.75;0.75;;;;;;;21.37;100.00;100826.63;4982728;28;20039;-78
2023/09/03 05:16:58;;;;;;;0.45;0.45;;;;;;;21.90;100.00;100946.63;4984634;28;20100;-78
2023/09/03 05:19:23;;;;;;;2.42;1.20;;;;;;;22.47;100.00;100941.72;4983436;28;20445;-78
2023/09/03 05:21:49;;;;;;;2.78;2.08;;;;;;;22.50;100.00;100837.28;4985015;28;20054;-77
2023/09/03 05:24:15;;;;;;;9.35;2.63;;;;;;;24.32;100.00;100945.97;4982698;28;20039;-77
2023/09/03 05:26:40;;;;;;;0.77;0.55;;;;;;;23.83;100.00;100926.00;4985734;28;20042;-75
2023/09/03 05:29:06;;;;;;;2.05;1.65;;;;;;;23.36;100.00;100897.75;4983435;28;20026;-80
2023/09/03 05:31:31;;;;;;;0.40;0.35;;;;;;;23.37;100.00;100894.16;4985221;28;20144;-79
2023/09/03 05:33:57;;;;;;;7.68;4.10;;;;;;;23.72;100.00;100926.50;4983000;28;20180;-81
2023/09/03 05:36:23;;;;;;;3.33;3.13;;;;;;;25.43;100.00;100926.97;4983885;28;20046;-80
2023/09/03 05:38:48;;;;;;;3.67;2.60;;;;;;;23.65;100.00;100848.19;4978247;28;21111;-79
2023/09/03 05:41:14;;;;;;;0.95;0.43;;;;;;;24.64;100.00;100909.53;4986202;28;20057;-78
2023/09/03 05:43:40;;;;;;;1.00;0.65;;;;;;;25.06;100.00;100894.81;4983744;28;20031;-79
2023/09/03 05:46:05;;;;;;;0.75;0.75;;;;;;;24.66;100.00;100930.94;4982159;28;20046;-79
2023/09/03 05:48:31;;;;;;;0.50;0.50;;;;;;;25.95;91.72;100934.88;4978418;28;20050;-77
2023/09/03 05:51:03;;;;;;;0.60;0.60;;;;;;;26.44;83.02;100933.91;4977121;28;20693;-78
2023/09/03 05:53:33;;;;;;;0.28;0.28;;;;;;;25.32;85.97;100838.88;4968720;28;20109;-76
2023/09/03 05:56:09;;;;;;;0.63;0.63;;;;;;;24.97;94.72;100938.28;4976997;28;20034;-78
2023/09/03 05:58:36;;;;;;;1.33;1.17;;;;;;;25.34;91.55;100904.13;4982600;28;20172;-78
2023/09/03 06:01:05;;;;;;;1.00;0.75;;;;;;;24.47;100.00;100871.97;4982747;28;20049;-80
2023/09/03 06:03:31;;;;;;;0.38;0.38;;;;;;;25.60;88.81;100848.09;4983894;28;20054;-81
2023/09/03 06:06:02;;;;;;;2.35;1.67;;;;;;;26.65;78.62;100948.84;4986935;28;20557;-78
2023/09/03 06:08:28;;;;;;;1.45;1.35;;;;;;;24.56;93.21;100929.63;4986477;28;23064;-77
2023/09/03 06:10:56;;;;;;;0.30;0.30;;;;;;;24.35;96.76;100860.00;4976992;28;20545;-75
2023/09/03 06:13:23;;;;;;;0.28;0.28;;;;;;;26.25;92.26;100943.03;4987102;28;20665;-74
2023/09/03 06:15:49;;;;;;;1.45;1.35;;;;;;;26.70;98.90;100944.03;4986246;28;20050;-74
2023/09/03 06:18:14;;;;;;;0.95;0.85;;;;;;;26.50;81.23;100955.06;4985705;28;20061;-74
2023/09/03 06:20:40;;;;;;;2.47;1.10;;;;;;;25.73;87.20;100955.78;4980370;28;20047;-72
2023/09/03 06:23:05;;;;;;;1.70;0.98;;;;;;;24.99;91.83;100914.91;4987782;28;20475;-73
2023/09/03 06:25:31;;;;;;;2.20;1.30;;;;;;;25.17;100.00;100855.78;4980834;28;20038;-75
2023/09/03 06:27:56;;;;;;;1.58;1.00;;;;;;;26.46;90.33;100958.91;4987462;28;20585;-73
2023/09/03 06:30:22;;;;;;;0.52;0.52;;;;;;;24.42;91.75;100847.16;4987117;28;20129;-74
2023/09/03 06:32:47;;;;;;;1.00;0.95;;;;;;;24.82;100.00;100952.50;5018803;28;20065;-73
2023/09/03 06:35:13;;;;;;;0.70;0.57;;;;;;;24.04;98.92;100875.84;4983442;28;20033;-72
2023/09/03 06:37:38;;;;;;;0.98;0.73;;;;;;;25.64;96.31;100947.28;4989913;28;20471;-73
2023/09/03 06:40:04;;;;;;;0.43;0.38;;;;;;;24.58;91.67;100860.66;4976990;28;20074;-70
2023/09/03 06:42:29;;;;;;;0.38;0.38;;;;;;;25.60;97.73;100913.47;4991107;28;20892;-73
2023/09/03 06:44:56;;;;;;;0.88;0.82;;;;;;;25.50;91.31;100939.13;4987072;28;20058;-74
2023/09/03 06:47:22;;;;;;;7.57;1.85;;;;;;;25.11;90.70;100867.72;4989952;28;20038;-74
2023/09/03 06:49:50;;;;;;;5.55;1.67;;;;;;;24.69;100.00;100937.94;4985131;28;20044;-79
2023/09/03 06:52:16;;;;;;;0.38;0.38;;;;;;;24.16;99.91;100934.25;4974147;28;20055;-74
2023/09/03 06:54:41;;;;;;;1.30;1.20;;;;;;;23.73;99.37;100856.72;4986706;28;20104;-74
2023/09/03 06:57:07;;;;;;;2.95;1.88;;;;;;;23.77;99.15;100860.19;4985791;28;20058;-72
2023/09/03 06:59:32;;;;;;;0.65;0.65;;;;;;;25.10;94.38;100929.56;4989333;28;20045;-81
2023/09/03 07:01:58;;;;;;;0.60;0.57;;;;;;;24.43;95.68;100873.00;4981232;28;20042;-73
2023/09/03 07:04:23;;;;;;;1.65;1.15;;;;;;;24.35;100.00;100927.06;4980541;28;20047;-71
2023/09/03 07:06:49;;;;;;;0.73;0.45;;;;;;;24.49;100.00;100944.31;4983705;28;20038;-74
2023/09/03 07:09:14;;;;;;;0.45;0.45;;;;;;;24.33;96.48;100843.09;4981111;28;20050;-75
2023/09/03 07:11:41;;;;;;;3.33;1.65;;;;;;;24.09;100.00;100839.84;4983342;28;20787;-75
2023/09/03 07:14:06;;;;;;;2.17;2.05;;;;;;;24.64;98.48;100928.31;4982600;28;20521;-74
2023/09/03 07:16:33;;;;;;;0.75;0.70;;;;;;;24.71;95.29;100863.59;5001913;28;20047;-73
2023/09/03 07:18:59;;;;;;;0.80;0.68;;;;;;;25.00;94.68;100942.59;4989667;28;20046;-74
2023/09/03 07:21:24;;;;;;;1.38;1.27;;;;;;;25.14;96.41;100939.22;4976627;28;20050;-74
2023/09/03 07:23:50;;;;;;;1.50;1.00;;;;;;;25.03;92.41;100946.03;4981140;28;20518;-75
2023/09/03 07:26:15;;;;;;;0.95;0.73;;;;;;;25.05;94.90;100951.28;4973351;28;20577;-73
2023/09/03 07:28:41;;;;;;;0.45;0.38;;;;;;;24.78;93.72;100924.06;5012379;28;20042;-72
2023/09/03 07:31:07;;;;;;;0.65;0.55;;;;;;;24.14;92.86;100789.53;4985227;28;20047;-73
2023/09/03 07:33:33;;;;;;;1.25;0.60;;;;;;;24.59;91.17;100857.03;4993692;28;20413;-73
2023/09/03 07:36:00;;;;;;;1.90;1.75;;;;;;;25.16;93.69;100943.53;4985649;28;20054;-75
2023/09/03 07:38:27;;;;;;;1.23;0.90;;;;;;;25.03;90.16;100939.78;4983384;28;20030;-76
2023/09/03 07:40:53;;;;;;;1.05;0.55;;;;;;;24.52;88.14;100896.72;4982662;28;20065;-75
2023/09/03 07:43:19;;;;;;;0.93;0.75;;;;;;;24.82;90.07;100906.88;4981896;28;20050;-74
2023/09/03 07:45:45;;;;;;;1.08;0.63;;;;;;;25.28;87.89;100952.81;4982397;28;20046;-76
2023/09/03 07:48:11;;;;;;;2.13;2.03;;;;;;;24.62;85.71;100873.84;4980691;28;20042;-76
2023/09/03 07:50:39;;;;;;;0.20;0.20;;;;;;;24.80;88.18;100860.44;4986648;28;20060;-74
2023/09/03 07:53:05;;;;;;;0.60;0.60;;;;;;;24.88;83.33;100892.25;4988417;28;20050;-76
2023/09/03 07:55:31;;;;;;;1.35;1.25;;;;;;;24.03;84.12;100738.25;4984085;28;20050;-76
2023/09/03 07:57:56;;;;;;;0.75;0.50;;;;;;;24.60;82.44;100856.94;4992656;28;20058;-75
2023/09/03 08:00:22;;;;;;;1.13;0.70;;;;;;;24.99;85.00;100939.06;4982581;28;21023;-70
2023/09/03 08:02:47;;;;;;;1.23;1.13;;;;;;;25.70;91.62;100954.16;4978047;28;20571;-74
2023/09/03 08:05:13;;;;;;;2.67;2.05;;;;;;;25.62;80.92;100943.81;4982192;28;20120;-73
2023/09/03 08:07:39;;;;;;;0.40;0.40;;;;;;;25.85;87.17;100949.78;4984060;28;20034;-73
2023/09/03 08:10:05;;;;;;;0.50;0.47;;;;;;;26.11;86.20;100946.50;4985026;28;20054;-74
2023/09/03 08:12:30;;;;;;;0.40;0.40;;;;;;;25.93;82.95;100925.16;4982820;28;20042;-75
2023/09/03 08:14:56;;;;;;;1.15;1.08;;;;;;;25.39;77.50;100853.69;4983005;28;20077;-75
2023/09/03 08:17:23;;;;;;;1.80;1.70;;;;;;;25.79;77.12;100945.59;4981893;28;20038;-74
2023/09/03 08:19:50;;;;;;;0.20;0.20;;;;;;;25.53;74.00;100863.69;4984916;28;20704;-74
2023/09/03 08:22:15;;;;;;;0.35;0.30;;;;;;;25.99;72.75;100944.53;4988299;28;20041;-75
2023/09/03 08:24:41;;;;;;;0.50;0.50;;;;;;;26.10;71.13;100923.25;4984436;28;20054;-74
2023/09/03 08:27:07;;;;;;;0.50;0.47;;;;;;;26.33;73.23;100934.53;4992904;28;20096;-77
2023/09/03 08:29:32;;;;;;;0.25;0.25;;;;;;;26.17;66.42;100934.53;4981172;28;20047;-75
2023/09/03 08:31:58;;;;;;;0.30;0.30;;;;;;;26.19;75.03;100888.72;4980375;28;20034;-75
2023/09/03 08:34:23;;;;;;;4.22;0.98;;;;;;;26.45;66.64;100923.03;4982848;28;20046;-74
2023/09/03 08:36:49;;;;;;;0.68;0.68;;;;;;;26.04;65.00;100852.81;4980698;28;20059;-76
2023/09/03 08:39:14;;;;;;;0.32;0.32;;;;;;;25.88;66.33;100807.09;4984577;28;20038;-77
2023/09/03 08:41:40;;;;;;;1.33;1.23;;;;;;;26.39;62.35;100887.56;4980819;28;20042;-76
2023/09/03 08:44:17;;;;;;;0.85;0.73;;;;;;;26.73;60.09;100903.47;4981987;28;20034;-75
2023/09/03 08:46:46;;;;;;;0.88;0.82;;;;;;;26.15;57.89;100823.44;4978224;28;20069;-76
2023/09/03 08:49:14;;;;;;;0.93;0.82;;;;;;;26.02;58.05;100803.63;4981682;28;20043;-74
2023/09/03 08:51:40;;;;;;;0.30;0.22;;;;;;;26.13;57.53;100795.78;4983284;28;20062;-73
2023/09/03 08:54:07;;;;;;;0.85;0.82;;;;;;;27.00;56.73;100893.84;4980406;28;20042;-75
2023/09/03 08:56:34;;;;;;;0.55;0.52;;;;;;;26.71;59.63;100869.50;4985442;28;20141;-74
2023/09/03 08:58:59;;;;;;;0.73;0.73;;;;;;;26.22;70.19;100765.66;4976220;28;20156;-75
2023/09/03 09:01:29;;;;;;;0.55;0.55;;;;;;;26.92;55.98;100883.50;4982157;28;20518;-75
2023/09/03 09:03:59;;;;;;;0.10;0.10;;;;;;;27.15;54.92;100879.41;4976768;28;20618;-75
2023/09/03 09:06:25;;;;;;;0.10;0.10;;;;;;;27.10;60.26;100865.34;4983983;28;20100;-74
2023/09/03 09:08:51;;;;;;;1.45;1.27;;;;;;;26.64;55.56;100763.16;4981314;28;20042;-74
2023/09/03 09:11:18;;;;;;;0.35;0.35;;;;;;;26.79;55.31;100782.91;4981630;28;20026;-75
2023/09/03 09:13:54;;;;;;;0.60;0.60;;;;;;;26.85;56.31;100786.06;4981699;28;20034;-76
2023/09/03 09:16:19;;;;;;;5.93;0.57;;;;;;;27.32;52.58;100844.22;5008437;28;20063;-75
2023/09/03 09:18:45;;;;;;;0.52;0.43;;;;;;;27.08;57.50;100781.94;4976279;28;20104;-73
2023/09/03 09:21:11;;;;;;;0.63;0.55;;;;;;;27.55;51.44;100849.97;4975390;28;20448;-77
2023/09/03 09:23:36;;;;;;;0.30;0.30;;;;;;;27.63;51.13;100854.84;4980717;28;20046;-69
2023/09/03 09:26:14;;;;;;;0.32;0.32;;;;;;;27.82;50.29;100857.25;4978642;28;20129;-74
2023/09/03 09:28:59;;;;;;;0.20;0.20;;;;;;;27.28;49.56;100760.97;4983430;28;20069;-73
2023/09/03 09:31:32;;;;;;;0.88;0.88;;;;;;;27.73;50.30;100851.47;4979694;28;20145;-73
2023/09/03 09:33:59;;;;;;;1.08;0.68;;;;;;;27.46;50.08;100772.38;4979583;28;20093;-72
2023/09/03 09:36:26;;;;;;;0.10;0.10;;;;;;;26.88;48.59;100693.47;4979193;28;20383;-74
2023/09/03 09:38:51;;;;;;;0.75;0.75;;;;;;;27.23;50.44;100765.78;4976937;28;20101;-72
2023/09/03 09:41:26;;;;;;;0.40;0.40;;;;;;;27.19;51.72;100757.00;4981264;28;20120;-67
2023/09/03 09:43:53;;;;;;;0.50;0.50;;;;;;;27.07;50.21;100752.41;4982778;28;20048;-73
2023/09/03 09:46:44;;;;;;;0.47;0.47;;;;;;;27.84;51.63;100831.94;4979910;28;20054;-72
2023/09/03 09:49:10;;;;;;;0.55;0.55;;;;;;;27.56;48.98;100749.25;4977964;28;20073;-75
2023/09/03 09:51:35;;;;;;;1.48;0.68;;;;;;;27.46;47.40;100740.03;4986239;28;20050;-72
2023/09/03 09:54:04;;;;;;;0.30;0.30;;;;;;;27.71;50.99;100733.91;4981711;28;20359;-76
2023/09/03 09:56:34;;;;;;;0.40;0.40;;;;;;;28.23;47.28;100803.25;4969892;28;1271257;-78
2023/09/03 09:59:00;;;;;;;0.40;0.40;;;;;;;28.58;46.92;100806.25;4975091;28;20038;-75
2023/09/03 10:01:40;;;;;;;0.30;0.30;;;;;;;28.50;45.55;100734.88;4979413;28;20081;-76
2023/09/03 10:04:06;;;;;;;0.70;0.70;;;;;;;28.52;47.65;100728.41;4978696;28;20086;-81
2023/09/03 10:06:32;;;;;;;0.22;0.22;;;;;;;28.79;44.24;100738.22;4977894;28;20201;-77
2023/09/03 10:08:58;;;;;;;1.85;1.58;;;;;;;29.15;45.39;100785.22;4979476;28;20085;-73
2023/09/03 10:11:23;;;;;;;0.10;0.10;;;;;;;28.96;42.96;100791.91;4980190;28;20458;-77
2023/09/03 10:13:49;;;;;;;1.42;0.90;;;;;;;29.47;45.49;100807.22;4981688;28;20040;-79
2023/09/03 10:16:21;;;;;;;0.45;0.45;;;;;;;29.14;42.32;100711.38;4972624;28;21394;-78
2023/09/03 10:18:50;;;;;;;0.38;0.38;;;;;;;30.17;42.36;100794.84;4976544;28;20494;-82
2023/09/03 10:21:27;;;;;;;0.65;0.65;;;;;;;30.22;41.94;100770.97;4978655;28;20054;-80
2023/09/03 10:23:54;;;;;;;0.43;0.43;;;;;;;30.17;40.78;100716.34;4978559;28;20054;-80
2023/09/03 10:26:37;;;;;;;0.20;0.20;;;;;;;30.16;40.53;100775.03;4977835;28;20553;-79
2023/09/03 10:29:05;;;;;;;3.15;1.38;;;;;;;30.62;42.03;100771.47;4983121;28;20445;-78
2023/09/03 10:31:35;;;;;;;2.15;2.03;;;;;;;31.39;42.22;100780.75;4987414;28;20083;-83
2023/09/03 10:34:00;;;;;;;1.40;1.30;;;;;;;31.79;41.21;100766.63;4975876;28;20121;-80
2023/09/03 10:36:26;;;;;;;0.70;0.70;;;;;;;31.11;39.70;100717.94;4984416;28;20137;-82
2023/09/03 10:38:51;;;;;;;1.20;1.10;;;;;;;31.68;38.14;100767.53;4978454;28;20062;-82
2023/09/03 10:41:19;;;;;;;1.10;0.82;;;;;;;31.70;38.37;100693.16;4982057;28;20538;-82
2023/09/03 10:43:46;;;;;;;1.02;0.70;;;;;;;31.81;39.28;100756.53;4985491;28;20030;-82
2023/09/03 10:46:12;;;;;;;4.63;2.45;;;;;;;32.67;38.19;100766.38;4979260;28;20145;-77
2023/09/03 10:48:38;;;;;;;1.48;1.38;;;;;;;31.79;38.09;100696.94;4978132;28;20058;-82
2023/09/03 10:51:04;;;;;;;2.10;2.00;;;;;;;31.80;38.27;100668.81;4979883;28;20043;-82
2023/09/03 10:53:43;;;;;;;0.20;0.20;;;;;;;32.65;37.33;100745.75;4983278;28;22788;-81
2023/09/03 10:56:08;;;;;;;0.63;0.63;;;;;;;31.86;37.74;100748.84;4981205;28;20595;-81
2023/09/03 10:58:35;;;;;;;2.85;0.50;;;;;;;31.40;37.58;100698.38;4987570;28;20054;-82
2023/09/03 11:01:20;;;;;;;0.35;0.35;;;;;;;31.13;37.58;100726.81;4987044;28;20043;-80
2023/09/03 11:03:47;;;;;;;0.30;0.30;;;;;;;32.08;37.77;100743.34;4979517;28;20212;-80
2023/09/03 11:06:21;;;;;;;0.60;0.50;;;;;;;31.51;37.11;100739.94;4989371;28;20149;-78
2023/09/03 11:08:48;;;;;;;1.27;1.17;;;;;;;32.14;38.69;100729.22;4980157;28;20428;-82
2023/09/03 11:11:20;;;;;;;1.00;0.63;;;;;;;32.11;36.96;100724.06;4986318;28;20035;-81
2023/09/03 11:13:53;;;;;;;1.35;1.00;;;;;;;32.18;38.92;100716.25;4986391;28;20048;-79
2023/09/03 11:16:29;;;;;;;0.38;0.38;;;;;;;31.47;37.14;100730.34;4988678;28;20046;-82
2023/09/03 11:18:55;;;;;;;0.50;0.47;;;;;;;31.88;37.44;100719.72;4987332;28;20042;-83
2023/09/03 11:21:23;;;;;;;0.57;0.38;;;;;;;30.82;40.51;100669.63;4985686;28;20618;-82
2023/09/03 11:24:04;;;;;;;0.95;0.68;;;;;;;31.06;38.08;100720.16;4985258;28;20042;-82